createdAt,value
2019-02-27T00:00:27.945Z,32.77
2019-02-27T00:02:56.717Z,39.30
2019-02-27T00:05:25.157Z,59.17
2019-02-27T00:07:54.829Z,37.97
2019-02-27T00:10:23.549Z,35.77
2019-02-27T00:12:52.535Z,32.77
2019-02-27T00:15:21.272Z,33.93
2019-02-27T00:17:51.526Z,33.87
2019-02-27T00:20:20.657Z,35.10
2019-02-27T00:22:50.656Z,35.70
2019-02-27T00:25:19.223Z,36.90
2019-02-27T00:27:49.306Z,33.53
2019-02-27T00:30:18.617Z,34.33
2019-02-27T00:32:50.998Z,32.97
2019-02-27T00:35:17.152Z,34.70
2019-02-27T00:37:45.574Z,32.43
2019-02-27T00:40:14.216Z,34.63
2019-02-27T00:42:42.682Z,35.50
2019-02-27T00:45:12.014Z,34.60
2019-02-27T00:47:40.618Z,34.40
2019-02-27T00:50:09.877Z,35.63
2019-02-27T00:52:38.308Z,34.90
2019-02-27T00:55:07.869Z,33.83
2019-02-27T00:57:36.537Z,36.30
2019-02-27T01:00:10.839Z,35.10
2019-02-27T01:02:39.248Z,35.97
2019-02-27T01:05:09.154Z,35.40
2019-02-27T01:07:37.864Z,34.67
2019-02-27T01:10:12.013Z,34.07
2019-02-27T01:12:40.192Z,34.67
2019-02-27T01:15:13.643Z,36.57
2019-02-27T01:17:43.244Z,35.17
2019-02-27T01:20:15.601Z,34.90
2019-02-27T01:22:45.121Z,34.00
2019-02-27T01:25:13.613Z,35.37
2019-02-27T01:27:42.009Z,35.10
2019-02-27T01:30:17.421Z,34.70
2019-02-27T01:32:45.833Z,33.03
2019-02-27T01:35:17.880Z,33.87
2019-02-27T01:37:45.160Z,36.40
2019-02-27T01:40:18.044Z,34.93
2019-02-27T01:42:46.840Z,34.40
2019-02-27T01:45:20.588Z,34.03
2019-02-27T01:47:46.358Z,34.10
2019-02-27T01:50:32.190Z,33.90
2019-02-27T01:53:01.039Z,36.17
2019-02-27T01:55:29.441Z,33.30
2019-02-27T01:57:57.847Z,35.23
2019-02-27T02:00:26.626Z,31.57
2019-02-27T02:02:55.386Z,32.60
2019-02-27T02:05:27.173Z,33.20
2019-02-27T02:07:55.752Z,31.50
2019-02-27T02:10:28.100Z,33.57
2019-02-27T02:13:00.241Z,34.03
2019-02-27T02:15:34.276Z,34.83
2019-02-27T02:18:25.209Z,34.13
2019-02-27T02:21:01.645Z,34.23
2019-02-27T02:23:52.265Z,33.10
2019-02-27T02:26:35.658Z,33.77
2019-02-27T02:29:20.369Z,33.20
2019-02-27T02:32:01.199Z,32.97
2019-02-27T02:34:39.891Z,33.50
2019-02-27T02:37:41.772Z,33.20
2019-02-27T02:40:22.155Z,31.80
2019-02-27T02:43:13.976Z,33.20
2019-02-27T02:45:54.459Z,32.20
2019-02-27T02:48:32.095Z,34.83
2019-02-27T02:51:14.794Z,32.60
2019-02-27T02:54:00.107Z,31.47
2019-02-27T02:56:30.969Z,33.93
2019-02-27T02:59:30.456Z,32.30
2019-02-27T03:02:23.441Z,32.17
2019-02-27T03:05:16.435Z,32.53
2019-02-27T03:08:05.493Z,30.73
2019-02-27T03:10:51.973Z,32.33
2019-02-27T03:13:41.627Z,33.87
2019-02-27T03:16:11.664Z,32.73
2019-02-27T03:19:05.045Z,31.20
2019-02-27T03:21:37.266Z,32.90
2019-02-27T03:24:08.766Z,30.93
2019-02-27T03:26:40.396Z,35.30
2019-02-27T03:29:23.705Z,30.47
2019-02-27T03:32:14.734Z,32.87
2019-02-27T03:35:11.434Z,33.63
2019-02-27T03:37:54.937Z,32.10
2019-02-27T03:40:50.729Z,32.50
2019-02-27T03:43:45.689Z,31.87
2019-02-27T03:46:30.542Z,32.97
2019-02-27T03:49:11.086Z,31.80
2019-02-27T03:52:11.262Z,31.87
2019-02-27T03:54:48.346Z,30.00
2019-02-27T03:57:24.445Z,33.13
2019-02-27T04:00:19.730Z,35.47
2019-02-27T04:02:56.995Z,31.90
2019-02-27T04:05:46.388Z,33.70
2019-02-27T04:08:50.954Z,32.90
2019-02-27T04:11:19.413Z,33.87
2019-02-27T04:13:47.838Z,33.20
2019-02-27T04:16:16.242Z,32.17
2019-02-27T04:18:44.798Z,34.30
2019-02-27T04:21:13.202Z,32.03
2019-02-27T04:23:47.986Z,34.17
2019-02-27T04:26:11.787Z,34.50
2019-02-27T04:28:40.198Z,32.50
2019-02-27T04:31:08.606Z,33.03
2019-02-27T04:33:37.044Z,33.80
2019-02-27T04:36:05.440Z,32.23
2019-02-27T04:38:33.843Z,34.30
2019-02-27T04:41:02.266Z,32.93
2019-02-27T04:43:32.164Z,32.57
2019-02-27T04:46:01.044Z,32.80
2019-02-27T04:48:29.908Z,32.57
2019-02-27T04:50:59.025Z,33.83
2019-02-27T04:53:31.484Z,34.10
2019-02-27T04:55:57.565Z,35.17
2019-02-27T04:58:25.968Z,32.63
2019-02-27T05:00:58.927Z,32.53
2019-02-27T05:03:25.837Z,33.07
2019-02-27T05:05:56.568Z,31.47
2019-02-27T05:08:27.144Z,32.20
2019-02-27T05:10:55.118Z,33.00
2019-02-27T05:13:23.522Z,33.97
2019-02-27T05:15:51.946Z,34.47
2019-02-27T05:18:20.348Z,34.10
2019-02-27T05:20:48.793Z,31.33
2019-02-27T05:23:17.194Z,34.67
2019-02-27T05:25:45.624Z,32.80
2019-02-27T05:28:14.069Z,31.60
2019-02-27T05:30:44.829Z,34.47
2019-02-27T05:33:12.696Z,34.70
2019-02-27T05:35:41.108Z,31.80
2019-02-27T05:38:09.642Z,32.00
2019-02-27T05:40:38.052Z,31.57
2019-02-27T05:43:06.489Z,32.33
2019-02-27T05:45:34.912Z,33.00
2019-02-27T05:48:03.336Z,31.10
2019-02-27T05:50:34.040Z,33.67
2019-02-27T05:53:01.911Z,32.57
2019-02-27T05:55:30.342Z,30.53
2019-02-27T05:57:58.894Z,32.30
2019-02-27T06:00:27.309Z,33.37
2019-02-27T06:02:56.872Z,33.30
2019-02-27T06:05:25.430Z,31.33
2019-02-27T06:07:53.839Z,32.03
2019-02-27T06:10:23.567Z,32.70
2019-02-27T06:12:52.199Z,31.43
2019-02-27T06:15:20.637Z,32.63
2019-02-27T06:17:49.737Z,32.20
2019-02-27T06:20:18.534Z,32.53
2019-02-27T06:22:46.957Z,32.37
2019-02-27T06:25:23.381Z,33.70
2019-02-27T06:27:48.875Z,33.80
2019-02-27T06:30:19.112Z,32.60
2019-02-27T06:32:47.541Z,32.90
2019-02-27T06:35:16.297Z,32.87
2019-02-27T06:37:44.713Z,32.03
2019-02-27T06:40:18.087Z,31.90
2019-02-27T06:42:46.362Z,32.57
2019-02-27T06:45:16.701Z,33.07
2019-02-27T06:47:45.130Z,31.77
2019-02-27T06:50:16.935Z,32.67
2019-02-27T06:52:45.364Z,33.03
2019-02-27T06:55:14.807Z,31.87
2019-02-27T06:57:43.258Z,31.90
2019-02-27T07:00:14.973Z,32.83
2019-02-27T07:02:43.401Z,31.10
2019-02-27T07:05:13.596Z,32.40
2019-02-27T07:07:42.228Z,32.60
2019-02-27T07:10:19.472Z,31.30
2019-02-27T07:12:45.973Z,33.70
2019-02-27T07:15:19.684Z,30.80
2019-02-27T07:17:48.102Z,34.30
2019-02-27T07:20:17.345Z,30.40
2019-02-27T07:22:46.654Z,32.23
2019-02-27T07:25:22.157Z,30.37
2019-02-27T07:27:50.581Z,32.70
2019-02-27T07:30:20.133Z,32.37
2019-02-27T07:32:48.548Z,32.77
2019-02-27T07:35:17.223Z,32.13
2019-02-27T07:37:48.113Z,32.33
2019-02-27T07:40:20.379Z,34.70
2019-02-27T07:42:48.786Z,34.77
2019-02-27T07:45:19.695Z,36.20
2019-02-27T07:47:48.104Z,35.43
2019-02-27T07:50:18.817Z,32.40
2019-02-27T07:52:47.301Z,33.27
2019-02-27T07:55:21.922Z,34.27
2019-02-27T07:57:46.947Z,36.70
2019-02-27T08:00:17.875Z,36.07
2019-02-27T08:02:46.276Z,33.80
2019-02-27T08:05:14.741Z,35.10
2019-02-27T08:07:43.221Z,36.27
2019-02-27T08:10:22.744Z,35.03
2019-02-27T08:12:55.561Z,37.37
2019-02-27T08:15:21.669Z,39.40
2019-02-27T08:17:50.157Z,36.80
2019-02-27T08:20:21.007Z,39.73
2019-02-27T08:22:49.751Z,33.70
2019-02-27T08:25:18.960Z,38.90
2019-02-27T08:27:47.576Z,32.10
2019-02-27T08:30:21.732Z,33.77
2019-02-27T08:32:50.169Z,30.43
2019-02-27T08:35:18.593Z,34.63
2019-02-27T08:37:47.477Z,34.13
2019-02-27T08:40:16.303Z,37.07
2019-02-27T08:42:44.725Z,33.27
2019-02-27T08:45:20.962Z,35.70
2019-02-27T08:47:49.720Z,33.87
2019-02-27T08:50:19.794Z,31.00
2019-02-27T08:52:51.568Z,31.33
2019-02-27T08:55:24.068Z,22.20
2019-02-27T08:57:55.570Z,25.90
2019-02-27T09:00:27.190Z,23.53
2019-02-27T09:02:55.975Z,23.53
2019-02-27T09:05:24.606Z,23.80
2019-02-27T09:07:53.070Z,23.87
2019-02-27T09:10:26.920Z,21.97
2019-02-27T09:13:04.432Z,23.97
2019-02-27T09:15:24.229Z,21.30
2019-02-27T09:17:55.484Z,23.57
2019-02-27T09:20:23.912Z,21.33
2019-02-27T09:22:52.352Z,20.53
2019-02-27T09:25:23.702Z,22.20
2019-02-27T09:27:50.947Z,21.53
2019-02-27T09:30:28.622Z,22.17
2019-02-27T09:32:53.511Z,19.77
2019-02-27T09:35:21.940Z,21.27
2019-02-27T09:37:51.366Z,20.73
2019-02-27T09:40:25.177Z,22.07
2019-02-27T09:42:54.049Z,24.47
2019-02-27T09:45:34.887Z,22.63
2019-02-27T09:48:04.123Z,24.47
2019-02-27T09:50:47.814Z,22.27
2019-02-27T09:53:15.376Z,22.17
2019-02-27T09:55:44.117Z,24.90
2019-02-27T09:58:13.125Z,23.63
2019-02-27T10:00:59.210Z,21.07
2019-02-27T10:03:26.642Z,25.43
2019-02-27T10:05:56.206Z,24.00
2019-02-27T10:08:25.524Z,26.00
2019-02-27T10:10:54.814Z,25.70
2019-02-27T10:13:23.247Z,24.07
2019-02-27T10:15:51.789Z,26.77
2019-02-27T10:18:22.064Z,26.13
2019-02-27T10:20:50.416Z,26.20
2019-02-27T10:23:18.842Z,23.70
2019-02-27T10:25:47.320Z,23.33
2019-02-27T10:28:15.769Z,24.80
2019-02-27T10:30:46.881Z,25.70
2019-02-27T10:33:14.501Z,26.17
2019-02-27T10:35:42.943Z,26.70
2019-02-27T10:38:11.376Z,25.47
2019-02-27T10:40:39.835Z,22.97
2019-02-27T10:43:08.417Z,25.60
2019-02-27T10:45:37.185Z,23.83
2019-02-27T10:48:05.625Z,24.03
2019-02-27T10:50:35.484Z,25.87
2019-02-27T10:53:04.480Z,23.43
2019-02-27T10:55:33.357Z,22.40
2019-02-27T10:58:01.781Z,23.70
2019-02-27T11:00:32.912Z,23.17
2019-02-27T11:03:02.903Z,23.30
2019-02-27T11:05:36.077Z,23.70
2019-02-27T11:08:04.529Z,24.10
2019-02-27T11:10:32.966Z,29.93
2019-02-27T11:13:05.626Z,29.90
2019-02-27T11:15:31.593Z,24.10
2019-02-27T11:18:04.443Z,24.57
2019-02-27T11:20:30.179Z,23.73
2019-02-27T11:22:58.613Z,23.33
2019-02-27T11:25:31.137Z,22.50
2019-02-27T11:27:59.620Z,22.30
2019-02-27T11:30:37.054Z,20.27
2019-02-27T11:33:05.885Z,21.30
2019-02-27T11:35:34.362Z,20.80
2019-02-27T11:38:02.873Z,22.07
2019-02-27T11:40:31.331Z,22.13
2019-02-27T11:43:01.097Z,22.50
2019-02-27T11:45:30.045Z,23.20
2019-02-27T11:47:58.790Z,22.40
2019-02-27T11:50:27.248Z,22.10
2019-02-27T11:52:55.892Z,22.00
2019-02-27T11:55:24.662Z,24.20
2019-02-27T11:57:53.537Z,24.50
2019-02-27T12:00:29.891Z,24.03
2019-02-27T12:02:58.974Z,22.70
2019-02-27T12:05:33.821Z,25.00
2019-02-27T12:07:58.435Z,22.13
2019-02-27T12:10:31.686Z,21.37
2019-02-27T12:13:01.377Z,22.33
2019-02-27T12:15:30.470Z,20.30
2019-02-27T12:18:00.562Z,22.37
2019-02-27T12:20:29.484Z,22.67
2019-02-27T12:22:58.294Z,22.40
2019-02-27T12:25:29.715Z,22.60
2019-02-27T12:27:57.441Z,22.03
2019-02-27T12:30:28.271Z,21.20
2019-02-27T12:32:57.010Z,21.97
2019-02-27T12:35:31.795Z,23.80
2019-02-27T12:38:00.509Z,21.23
2019-02-27T12:40:28.957Z,21.73
2019-02-27T12:42:57.409Z,20.97
2019-02-27T12:45:30.041Z,21.43
2019-02-27T12:47:58.996Z,20.80
2019-02-27T12:50:31.334Z,19.50
2019-02-27T12:53:00.326Z,21.27
2019-02-27T12:55:29.028Z,18.60
2019-02-27T12:57:57.531Z,20.63
2019-02-27T13:00:36.110Z,20.70
2019-02-27T13:03:08.373Z,20.20
2019-02-27T13:05:35.676Z,20.83
2019-02-27T13:08:04.112Z,20.30
2019-02-27T13:10:34.002Z,18.40
2019-02-27T13:13:02.713Z,20.10
2019-02-27T13:15:31.150Z,18.10
2019-02-27T13:17:59.590Z,19.17
2019-02-27T13:20:32.668Z,20.00
2019-02-27T13:23:03.936Z,20.20
2019-02-27T13:25:31.344Z,18.60
2019-02-27T13:28:00.101Z,19.50
2019-02-27T13:30:29.267Z,18.27
2019-02-27T13:33:00.650Z,15.83
2019-02-27T13:35:28.812Z,16.00
2019-02-27T13:37:58.092Z,15.97
2019-02-27T13:40:28.287Z,15.63
2019-02-27T13:42:57.095Z,17.00
2019-02-27T13:45:27.252Z,16.97
2019-02-27T13:47:55.701Z,17.53
2019-02-27T13:50:26.673Z,16.37
2019-02-27T13:52:54.340Z,14.40
2019-02-27T13:55:23.824Z,16.53
2019-02-27T13:57:52.256Z,15.90
2019-02-27T14:00:25.595Z,15.70
2019-02-27T14:02:53.604Z,15.53
2019-02-27T14:05:22.313Z,15.17
2019-02-27T14:07:50.744Z,15.53
2019-02-27T14:10:23.903Z,16.50
2019-02-27T14:12:52.604Z,17.33
2019-02-27T14:15:26.736Z,15.83
2019-02-27T14:17:55.836Z,17.40
2019-02-27T14:20:26.901Z,17.03
2019-02-27T14:22:55.028Z,17.27
2019-02-27T14:25:32.920Z,16.90
2019-02-27T14:28:00.977Z,16.17
2019-02-27T14:30:41.991Z,17.20
2019-02-27T14:33:11.094Z,18.47
2019-02-27T14:35:40.174Z,17.93
2019-02-27T14:38:08.641Z,17.30
2019-02-27T14:40:40.941Z,19.13
2019-02-27T14:43:07.838Z,18.53
2019-02-27T14:45:39.564Z,17.47
2019-02-27T14:48:06.503Z,15.83
2019-02-27T14:50:36.501Z,18.60
2019-02-27T14:53:05.116Z,16.90
2019-02-27T14:55:35.935Z,19.30
2019-02-27T14:58:03.712Z,17.63
2019-02-27T15:00:39.638Z,17.93
2019-02-27T15:03:07.364Z,19.37
2019-02-27T15:05:36.743Z,18.90
2019-02-27T15:08:05.853Z,18.80
2019-02-27T15:10:34.301Z,19.57
2019-02-27T15:13:02.756Z,18.50
2019-02-27T15:15:32.439Z,18.87
2019-02-27T15:18:01.182Z,20.07
2019-02-27T15:20:30.396Z,17.33
2019-02-27T15:22:59.092Z,19.17
2019-02-27T15:25:27.952Z,21.73
2019-02-27T15:27:58.860Z,17.00
2019-02-27T15:30:30.081Z,18.10
2019-02-27T15:33:03.902Z,19.30
2019-02-27T15:35:28.941Z,19.47
2019-02-27T15:37:57.645Z,20.20
2019-02-27T15:40:29.543Z,19.47
2019-02-27T15:42:58.318Z,19.50
2019-02-27T15:45:27.706Z,19.63
2019-02-27T15:47:56.460Z,19.17
2019-02-27T15:50:35.016Z,20.57
2019-02-27T15:53:03.451Z,21.33
2019-02-27T15:55:34.286Z,20.20
2019-02-27T15:58:02.148Z,20.13
2019-02-27T16:00:30.663Z,19.77
2019-02-27T16:02:59.132Z,19.10
2019-02-27T16:05:31.432Z,20.77
2019-02-27T16:07:57.725Z,20.03
2019-02-27T16:10:29.621Z,21.20
2019-02-27T16:13:00.970Z,20.23
2019-02-27T16:15:28.214Z,18.93
2019-02-27T16:17:56.689Z,20.50
2019-02-27T16:20:27.146Z,21.07
2019-02-27T16:22:55.582Z,19.20
2019-02-27T16:25:25.702Z,19.77
2019-02-27T16:27:54.170Z,19.20
2019-02-27T16:30:32.515Z,19.33
2019-02-27T16:33:00.160Z,20.63
2019-02-27T16:35:28.886Z,20.33
2019-02-27T16:37:57.955Z,20.10
2019-02-27T16:40:27.899Z,18.60
2019-02-27T16:42:56.628Z,19.43
2019-02-27T16:45:32.266Z,18.60
2019-02-27T16:47:58.445Z,18.23
2019-02-27T16:50:28.310Z,19.60
2019-02-27T16:52:56.984Z,17.90
2019-02-27T16:55:26.801Z,19.10
2019-02-27T16:57:57.534Z,18.20
2019-02-27T17:00:30.633Z,18.73
2019-02-27T17:02:59.402Z,18.60
2019-02-27T17:05:27.845Z,19.10
2019-02-27T17:08:00.232Z,18.43
2019-02-27T17:10:37.675Z,17.93
2019-02-27T17:13:06.373Z,18.80
2019-02-27T17:15:36.149Z,17.70
2019-02-27T17:18:05.226Z,17.70
2019-02-27T17:20:33.661Z,17.83
2019-02-27T17:23:06.825Z,19.20
2019-02-27T17:25:33.361Z,18.50
2019-02-27T17:28:01.944Z,19.00
2019-02-27T17:30:36.630Z,20.13
2019-02-27T17:33:04.084Z,18.43
2019-02-27T17:35:34.349Z,18.10
2019-02-27T17:38:03.636Z,17.20
2019-02-27T17:40:36.207Z,19.97
2019-02-27T17:43:02.560Z,19.50
2019-02-27T17:45:31.006Z,17.10
2019-02-27T17:47:59.453Z,19.27
2019-02-27T17:50:30.899Z,18.63
2019-02-27T17:52:58.040Z,19.07
2019-02-27T17:55:27.975Z,18.10
2019-02-27T17:57:58.450Z,19.07
2019-02-27T18:00:32.633Z,18.90
2019-02-27T18:03:01.303Z,19.73
2019-02-27T18:05:29.801Z,17.67
2019-02-27T18:07:58.638Z,19.13
2019-02-27T18:10:27.112Z,17.60
2019-02-27T18:12:55.593Z,18.20
2019-02-27T18:15:24.969Z,18.27
2019-02-27T18:17:53.425Z,19.60
2019-02-27T18:20:25.568Z,19.13
2019-02-27T18:22:52.384Z,17.00
2019-02-27T18:25:20.910Z,17.07
2019-02-27T18:27:49.650Z,18.83
2019-02-27T18:30:20.166Z,19.40
2019-02-27T18:32:49.432Z,16.80
2019-02-27T18:35:19.434Z,16.97
2019-02-27T18:37:53.267Z,17.37
2019-02-27T18:40:19.793Z,17.73
2019-02-27T18:42:48.238Z,21.27
2019-02-27T18:45:25.837Z,18.73
2019-02-27T18:47:54.254Z,18.83
2019-02-27T18:50:24.871Z,17.73
2019-02-27T18:52:52.916Z,18.73
2019-02-27T18:55:21.368Z,18.50
2019-02-27T18:57:49.828Z,18.43
2019-02-27T19:00:21.629Z,18.40
2019-02-27T19:02:53.585Z,18.60
2019-02-27T19:05:22.385Z,18.53
2019-02-27T19:07:53.644Z,19.13
2019-02-27T19:10:21.651Z,18.30
2019-02-27T19:12:50.102Z,18.10
2019-02-27T19:15:22.144Z,18.17
2019-02-27T19:17:51.309Z,19.93
2019-02-27T19:20:31.353Z,18.83
2019-02-27T19:23:00.451Z,17.97
2019-02-27T19:25:34.118Z,20.80
2019-02-27T19:27:59.350Z,20.90
2019-02-27T19:30:28.073Z,18.97
2019-02-27T19:33:01.471Z,19.70
2019-02-27T19:35:26.996Z,21.67
2019-02-27T19:37:55.450Z,20.60
2019-02-27T19:40:29.963Z,20.70
2019-02-27T19:42:59.105Z,17.37
2019-02-27T19:45:28.105Z,19.27
2019-02-27T19:47:56.558Z,18.53
2019-02-27T19:50:25.558Z,18.80
2019-02-27T19:52:54.131Z,19.27
2019-02-27T19:55:26.214Z,20.50
2019-02-27T19:57:52.845Z,20.80
2019-02-27T20:00:23.674Z,21.10
2019-02-27T20:02:55.248Z,20.70
2019-02-27T20:05:23.025Z,21.40
2019-02-27T20:07:52.012Z,20.60
2019-02-27T20:10:20.457Z,21.50
2019-02-27T20:12:52.771Z,21.10
2019-02-27T20:15:20.903Z,21.73
2019-02-27T20:17:49.860Z,19.10
2019-02-27T20:20:22.893Z,21.90
2019-02-27T20:22:53.675Z,21.40
2019-02-27T20:25:28.587Z,22.23
2019-02-27T20:27:58.030Z,20.87
2019-02-27T20:30:27.741Z,21.80
2019-02-27T20:32:56.206Z,22.37
2019-02-27T20:35:24.686Z,20.93
2019-02-27T20:37:53.222Z,21.10
2019-02-27T20:40:22.303Z,20.30
2019-02-27T20:42:54.692Z,20.60
2019-02-27T20:45:26.746Z,20.47
2019-02-27T20:48:00.010Z,22.23
2019-02-27T20:50:34.925Z,19.63
2019-02-27T20:53:01.985Z,21.50
2019-02-27T20:55:31.721Z,20.03
2019-02-27T20:58:00.718Z,21.40
2019-02-27T21:00:29.165Z,18.40
2019-02-27T21:02:59.926Z,19.30
2019-02-27T21:05:28.389Z,21.23
2019-02-27T21:08:00.904Z,21.07
2019-02-27T21:10:29.192Z,21.80
2019-02-27T21:12:57.681Z,21.50
2019-02-27T21:15:29.269Z,20.93
2019-02-27T21:17:58.499Z,21.40
2019-02-27T21:20:27.505Z,20.30
2019-02-27T21:22:55.941Z,20.13
2019-02-27T21:25:24.697Z,21.30
2019-02-27T21:27:53.439Z,20.50
2019-02-27T21:30:23.502Z,21.43
2019-02-27T21:32:51.940Z,21.40
2019-02-27T21:35:20.719Z,20.90
2019-02-27T21:37:52.561Z,23.90
2019-02-27T21:40:21.046Z,21.00
2019-02-27T21:42:50.932Z,20.50
2019-02-27T21:45:21.495Z,21.40
2019-02-27T21:48:07.214Z,20.37
2019-02-27T21:50:39.872Z,20.63
2019-02-27T21:53:08.128Z,21.10
2019-02-27T21:55:36.568Z,20.60
2019-02-27T21:58:05.012Z,20.10
2019-02-27T22:00:33.531Z,20.30
2019-02-27T22:03:04.899Z,20.87
2019-02-27T22:05:32.173Z,19.97
2019-02-27T22:08:00.714Z,20.63
2019-02-27T22:10:29.208Z,21.73
2019-02-27T22:12:57.645Z,20.40
2019-02-27T22:15:30.022Z,21.33
2019-02-27T22:17:58.671Z,21.60
2019-02-27T22:20:27.208Z,22.60
2019-02-27T22:22:55.641Z,21.30
2019-02-27T22:25:24.181Z,22.80
2019-02-27T22:27:53.182Z,21.60
2019-02-27T22:30:22.394Z,22.80
2019-02-27T22:32:50.912Z,21.40
2019-02-27T22:35:19.542Z,21.27
2019-02-27T22:37:51.042Z,21.27
2019-02-27T22:40:19.966Z,20.17
2019-02-27T22:42:49.244Z,22.70
2019-02-27T22:45:19.078Z,22.37
2019-02-27T22:47:48.652Z,21.10
2019-02-27T22:50:18.337Z,20.50
2019-02-27T22:52:46.771Z,22.43
2019-02-27T22:55:15.229Z,21.37
2019-02-27T22:57:43.659Z,21.87
2019-02-27T23:00:44.087Z,21.97
2019-02-27T23:03:12.722Z,21.90
2019-02-27T23:05:41.166Z,20.50
2019-02-27T23:08:09.592Z,21.30
2019-02-27T23:10:38.118Z,21.00
2019-02-27T23:13:12.489Z,23.13
2019-02-27T23:15:39.229Z,20.83
2019-02-27T23:18:07.684Z,21.40
2019-02-27T23:20:36.401Z,20.70
2019-02-27T23:23:05.101Z,20.97
2019-02-27T23:25:33.543Z,21.53
2019-02-27T23:28:02.131Z,22.27
2019-02-27T23:30:30.693Z,21.50
2019-02-27T23:33:02.005Z,21.40
2019-02-27T23:35:29.445Z,23.20
2019-02-27T23:38:02.957Z,23.50
2019-02-27T23:40:28.058Z,22.70
2019-02-27T23:43:02.419Z,26.17
2019-02-27T23:45:26.829Z,23.30
2019-02-27T23:47:55.272Z,23.87
2019-02-27T23:50:23.701Z,24.77
2019-02-27T23:52:53.194Z,25.00
2019-02-27T23:55:22.468Z,25.90
2019-02-27T23:57:50.928Z,26.70
